Time;durP1;ratioP1;P1;durP2;ratioP2;P2;SDS_P1;SDS_P2;PMS_P1;PMS_P2;Temp;Humidity;BMP_temperature;BMP_pressure;BME280_temperature;BME280_humidity;BME280_pressure;Samples;Min_cycle;Max_cycle;Signal;HPM_P1;HPM_P2
2023/01/19 00:00:42;;;;;;;6.53;1.65;;;;;;;5.14;82.13;99456.09;5053547;28;20094;-67
2023/01/19 00:03:14;;;;;;;5.07;1.70;;;;;;;5.09;82.74;99458.50;5053478;28;20032;-68
2023/01/19 00:05:41;;;;;;;5.55;1.88;;;;;;;5.13;82.42;99453.59;5053953;28;20499;-67
2023/01/19 00:08:13;;;;;;;5.82;1.83;;;;;;;5.12;82.45;99463.47;5052467;28;20029;-68
2023/01/19 00:10:40;;;;;;;6.53;1.85;;;;;;;5.16;82.66;99456.69;5053134;28;20020;-67
2023/01/19 00:13:06;;;;;;;5.82;1.70;;;;;;;5.19;83.13;99458.16;5053629;28;20114;-67
2023/01/19 00:15:32;;;;;;;7.07;1.80;;;;;;;5.19;83.25;99461.66;5052112;28;20068;-68
2023/01/19 00:17:57;;;;;;;8.85;2.28;;;;;;;5.19;83.48;99460.81;5053310;28;20057;-67
2023/01/19 00:20:22;;;;;;;10.57;1.92;;;;;;;5.16;83.15;99447.88;5051782;28;20037;-67
2023/01/19 00:22:49;;;;;;;8.48;1.95;;;;;;;5.18;83.62;99452.00;5053327;28;20029;-67
2023/01/19 00:25:16;;;;;;;11.02;2.17;;;;;;;5.13;83.78;99433.13;5051399;28;20507;-68
2023/01/19 00:27:48;;;;;;;12.60;2.70;;;;;;;5.09;83.75;99426.53;5051664;28;20041;-68
2023/01/19 00:30:16;;;;;;;7.88;2.60;;;;;;;5.15;83.95;99444.41;5035895;28;20021;-68
2023/01/19 00:32:42;;;;;;;8.90;2.65;;;;;;;5.12;84.10;99449.31;5050882;28;20476;-67
2023/01/19 00:35:07;;;;;;;9.93;2.70;;;;;;;5.13;83.69;99456.28;5052062;28;20104;-67
2023/01/19 00:37:33;;;;;;;8.30;3.35;;;;;;;5.10;83.79;99443.34;5052752;28;20395;-67
2023/01/19 00:39:58;;;;;;;11.57;3.25;;;;;;;5.08;84.30;99448.88;5052603;28;20037;-67
2023/01/19 00:42:39;;;;;;;15.20;4.35;;;;;;;5.13;84.21;99442.94;5050122;28;20045;-67
2023/01/19 00:45:17;;;;;;;9.93;3.25;;;;;;;5.13;84.04;99441.13;5050286;28;20033;-67
2023/01/19 00:47:43;;;;;;;10.18;3.65;;;;;;;5.08;84.37;99446.22;5052967;28;20021;-68
2023/01/19 00:50:10;;;;;;;9.20;3.97;;;;;;;5.11;83.81;99445.00;5050877;28;20025;-67
2023/01/19 00:52:37;;;;;;;10.55;3.70;;;;;;;5.05;83.98;99454.59;5052950;28;20035;-67
2023/01/19 00:55:03;;;;;;;12.48;3.95;;;;;;;5.00;84.77;99445.53;5051165;28;20037;-68
2023/01/19 00:57:31;;;;;;;11.00;4.20;;;;;;;4.92;84.46;99446.53;5052897;28;20436;-67
2023/01/19 00:59:56;;;;;;;10.30;4.45;;;;;;;4.92;85.23;99450.00;5035347;28;20092;-68
2023/01/19 01:02:22;;;;;;;12.57;3.92;;;;;;;4.71;84.89;99432.25;5051441;28;20406;-67
2023/01/19 01:04:47;;;;;;;12.77;4.10;;;;;;;4.84;85.08;99457.34;5052584;28;20043;-67
2023/01/19 01:07:13;;;;;;;8.55;3.65;;;;;;;4.71;84.99;99455.41;5052443;28;20403;-67
2023/01/19 01:09:38;;;;;;;10.88;3.85;;;;;;;4.46;86.41;99463.00;5051190;28;20061;-68
2023/01/19 01:12:04;;;;;;;15.23;4.70;;;;;;;4.30;87.64;99469.41;5050541;28;20032;-68
2023/01/19 01:14:29;;;;;;;11.23;3.72;;;;;;;4.39;86.53;99459.47;5052882;28;20020;-68
2023/01/19 01:16:54;;;;;;;10.02;3.70;;;;;;;4.43;86.01;99466.03;5050443;28;20182;-67
2023/01/19 01:19:20;;;;;;;9.15;4.10;;;;;;;4.30;85.74;99450.78;5034307;28;20036;-68
2023/01/19 01:21:46;;;;;;;11.68;4.32;;;;;;;4.43;86.04;99466.88;5051816;28;20661;-68
2023/01/19 01:24:11;;;;;;;8.80;3.97;;;;;;;4.33;86.04;99453.06;5051237;28;20103;-68
2023/01/19 01:26:37;;;;;;;9.85;3.95;;;;;;;4.38;86.25;99463.16;5052301;28;20530;-68
2023/01/19 01:29:04;;;;;;;10.75;3.97;;;;;;;4.30;86.04;99461.41;5051471;28;20120;-67
2023/01/19 01:31:30;;;;;;;9.68;4.35;;;;;;;4.33;86.21;99473.53;5052588;28;20029;-68
2023/01/19 01:33:56;;;;;;;11.90;4.45;;;;;;;4.19;86.54;99464.59;5052456;28;20025;-68
2023/01/19 01:36:21;;;;;;;10.50;4.47;;;;;;;4.18;86.10;99471.78;5051933;28;20041;-68
2023/01/19 01:38:47;;;;;;;13.68;4.60;;;;;;;4.19;86.14;99476.06;5033879;28;20032;-67
2023/01/19 01:41:12;;;;;;;15.82;4.85;;;;;;;4.24;86.29;99484.34;5050435;28;20090;-68
2023/01/19 01:43:50;;;;;;;10.48;4.40;;;;;;;4.27;86.56;99480.44;5050989;28;20471;-68
2023/01/19 01:46:16;;;;;;;12.77;4.35;;;;;;;4.27;86.26;99482.28;5050119;28;20449;-68
2023/01/19 01:49:09;;;;;;;17.20;4.18;;;;;;;4.28;86.07;99481.28;5049990;28;20036;-68
2023/01/19 01:51:49;;;;;;;11.25;4.28;;;;;;;4.20;86.40;99480.38;5051926;28;20035;-68
2023/01/19 01:54:25;;;;;;;13.90;4.38;;;;;;;4.10;86.10;99468.41;5051243;28;20032;-68
2023/01/19 01:56:55;;;;;;;15.43;4.82;;;;;;;4.14;86.09;99465.19;5051716;28;20079;-68
2023/01/19 01:59:28;;;;;;;16.98;5.20;;;;;;;4.27;86.36;99490.28;5051709;28;20051;-68
2023/01/19 02:04:47;;;;;;;11.90;5.20;;;;;;;4.18;85.91;99482.44;5051815;28;20036;-68
2023/01/19 02:15:32;;;;;;;11.57;5.25;;;;;;;4.09;87.19;99496.88;5051643;28;20466;-68
2023/01/19 02:17:57;;;;;;;16.58;5.72;;;;;;;4.07;87.21;99493.56;5053081;28;20053;-68
2023/01/19 02:20:26;;;;;;;16.20;6.15;;;;;;;4.06;87.10;99486.59;5053355;28;20032;-68
2023/01/19 02:22:55;;;;;;;12.80;6.25;;;;;;;3.80;87.26;99446.41;5054822;28;20028;-68
2023/01/19 02:25:21;;;;;;;18.45;6.60;;;;;;;4.04;87.37;99496.63;5055769;28;20028;-68
2023/01/19 02:27:49;;;;;;;13.48;6.57;;;;;;;3.95;86.96;99487.09;5054779;28;20036;-68
2023/01/19 02:30:15;;;;;;;15.30;7.13;;;;;;;4.00;87.72;99498.00;5055485;28;20029;-68
2023/01/19 02:32:42;;;;;;;19.55;7.18;;;;;;;4.00;87.91;99498.81;5054194;28;20087;-68
2023/01/19 02:35:07;;;;;;;23.45;7.30;;;;;;;3.99;87.80;99501.69;5053300;28;20043;-68
2023/01/19 02:37:38;;;;;;;19.33;7.03;;;;;;;4.03;87.61;99494.94;5036738;28;20101;-68
2023/01/19 02:40:10;;;;;;;16.83;7.38;;;;;;;4.05;86.93;99500.94;5053692;28;20106;-68
2023/01/19 02:42:48;;;;;;;18.63;7.55;;;;;;;3.90;87.38;99489.50;5055273;28;20036;-68
2023/01/19 02:45:18;;;;;;;16.67;8.10;;;;;;;3.90;88.23;99506.28;5055146;28;20028;-68
2023/01/19 02:47:46;;;;;;;18.33;7.20;;;;;;;3.86;88.06;99498.88;5054898;28;20033;-68
2023/01/19 02:50:37;;;;;;;19.13;7.65;;;;;;;3.91;87.70;99510.59;5055082;28;20071;-68
2023/01/19 02:53:47;;;;;;;14.70;7.72;;;;;;;3.92;88.01;99498.13;5053940;28;20013;-68
2023/01/19 02:56:38;;;;;;;15.70;7.65;;;;;;;3.87;87.48;99487.19;5012712;28;20094;-68
2023/01/19 02:59:06;;;;;;;15.85;7.80;;;;;;;3.86;87.85;99494.38;5053491;28;20047;-68
2023/01/19 03:01:32;;;;;;;18.00;7.60;;;;;;;3.84;88.45;99490.25;5054884;28;20029;-68
2023/01/19 03:04:01;;;;;;;18.38;7.93;;;;;;;3.87;88.10;99501.31;5055153;28;20387;-69
2023/01/19 03:06:45;;;;;;;14.88;7.65;;;;;;;3.66;88.55;99491.47;5052813;28;20029;-69
2023/01/19 03:09:33;;;;;;;20.92;9.25;;;;;;;3.83;88.88;99496.59;5054755;28;20055;-68
2023/01/19 03:12:25;;;;;;;19.15;8.48;;;;;;;3.75;88.16;99484.22;5054477;28;20099;-67
2023/01/19 03:14:59;;;;;;;18.50;8.07;;;;;;;3.90;88.18;99506.28;5054266;28;20491;-67
2023/01/19 03:17:29;;;;;;;19.08;8.73;;;;;;;3.91;88.20;99505.28;5052469;28;20057;-68
2023/01/19 03:19:56;;;;;;;17.42;8.73;;;;;;;3.86;88.74;99502.34;5054022;28;20048;-67
2023/01/19 03:22:26;;;;;;;18.65;9.27;;;;;;;3.89;88.52;99514.47;5053532;28;20053;-68
2023/01/19 03:24:59;;;;;;;23.02;9.32;;;;;;;3.86;88.74;99509.50;5056050;28;20048;-67
2023/01/19 03:27:28;;;;;;;26.73;9.98;;;;;;;3.87;88.93;99517.28;5053299;28;20025;-67
2023/01/19 03:30:00;;;;;;;20.58;9.88;;;;;;;3.90;88.44;99514.25;5052202;28;20100;-68
2023/01/19 03:32:36;;;;;;;22.77;10.48;;;;;;;3.89;88.91;99522.44;5051785;28;20028;-67
2023/01/19 03:35:08;;;;;;;26.85;9.88;;;;;;;3.85;88.90;99516.69;5052298;28;20035;-68
2023/01/19 03:37:40;;;;;;;22.63;11.30;;;;;;;3.82;90.08;99524.22;5053751;28;20025;-68
2023/01/19 03:40:06;;;;;;;26.58;11.10;;;;;;;3.83;89.96;99523.19;5052224;28;20025;-68
2023/01/19 03:42:33;;;;;;;25.65;10.38;;;;;;;3.89;88.90;99530.44;5053861;28;20039;-67
2023/01/19 03:45:00;;;;;;;24.60;11.15;;;;;;;3.93;89.04;99529.03;5053862;28;20394;-67
2023/01/19 03:47:27;;;;;;;28.30;11.75;;;;;;;3.92;88.29;99530.06;5052540;28;20029;-67
2023/01/19 03:49:55;;;;;;;23.90;12.15;;;;;;;3.72;89.22;99527.97;5054262;28;20430;-68
2023/01/19 03:52:31;;;;;;;24.52;12.13;;;;;;;3.72;89.64;99535.16;5052627;28;20024;-68
2023/01/19 03:54:56;;;;;;;25.60;12.57;;;;;;;3.41;90.46;99496.31;5053970;28;20017;-68
2023/01/19 03:57:22;;;;;;;27.70;12.90;;;;;;;3.61;90.14;99525.81;5053124;28;20509;-68
2023/01/19 03:59:48;;;;;;;26.30;12.80;;;;;;;3.69;89.72;99525.69;5054003;28;20052;-68
2023/01/19 04:02:13;;;;;;;22.35;12.20;;;;;;;3.68;89.52;99523.22;5052018;28;20052;-69
2023/01/19 04:04:39;;;;;;;30.95;13.50;;;;;;;3.66;89.75;99528.72;5053108;28;20396;-68
2023/01/19 04:07:05;;;;;;;28.23;13.25;;;;;;;3.57;90.70;99527.16;5052302;28;20090;-67
2023/01/19 04:09:31;;;;;;;24.05;12.80;;;;;;;3.52;90.40;99518.94;5052208;28;20403;-68
2023/01/19 04:11:56;;;;;;;24.80;13.45;;;;;;;3.66;90.59;99536.69;5051616;28;20029;-68
2023/01/19 04:14:22;;;;;;;27.33;13.35;;;;;;;3.68;89.78;99531.22;5051942;28;20033;-68
2023/01/19 04:16:47;;;;;;;24.17;13.35;;;;;;;3.61;90.17;99547.09;5051621;28;20102;-68
2023/01/19 04:19:12;;;;;;;23.00;13.82;;;;;;;3.63;90.10;99537.06;5051516;28;20033;-68
2023/01/19 04:21:38;;;;;;;25.95;13.30;;;;;;;3.71;89.87;99536.16;5053135;28;20020;-68
2023/01/19 04:24:04;;;;;;;30.63;14.43;;;;;;;3.73;89.41;99542.94;5051535;28;20055;-68
2023/01/19 04:26:29;;;;;;;26.92;14.00;;;;;;;3.74;89.51;99547.25;5052628;28;20072;-68
2023/01/19 04:28:54;;;;;;;36.05;15.45;;;;;;;3.68;89.18;99545.34;5050954;28;20043;-68
2023/01/19 04:31:22;;;;;;;29.23;15.80;;;;;;;3.52;90.67;99550.84;5053125;28;20017;-68
2023/01/19 04:33:47;;;;;;;29.45;14.93;;;;;;;3.28;92.20;99552.78;5051260;28;20075;-68
2023/01/19 04:36:13;;;;;;;28.65;15.75;;;;;;;3.52;91.74;99548.19;5034890;28;20036;-68
2023/01/19 04:38:38;;;;;;;35.13;15.32;;;;;;;3.50;91.96;99544.88;5051627;28;20449;-68
2023/01/19 04:41:04;;;;;;;31.92;15.02;;;;;;;3.20;92.97;99528.09;5050787;28;20109;-68
2023/01/19 04:43:29;;;;;;;33.75;14.75;;;;;;;3.46;92.41;99555.06;5053024;28;20020;-68
2023/01/19 04:45:55;;;;;;;30.02;14.82;;;;;;;3.58;91.94;99549.28;5034397;28;20090;-68
2023/01/19 04:48:21;;;;;;;27.25;14.50;;;;;;;3.48;92.71;99557.56;5053153;28;20045;-68
2023/01/19 04:50:46;;;;;;;27.98;13.82;;;;;;;3.48;93.40;99554.88;5051923;28;20399;-68
2023/01/19 04:53:12;;;;;;;22.85;14.00;;;;;;;3.64;92.57;99554.69;5051679;28;20032;-68
2023/01/19 04:55:38;;;;;;;23.92;14.13;;;;;;;3.75;91.22;99546.22;5051690;28;20032;-67
2023/01/19 04:58:03;;;;;;;30.33;15.15;;;;;;;3.70;90.72;99542.47;5052123;28;20100;-67
2023/01/19 05:00:29;;;;;;;26.92;15.18;;;;;;;3.22;91.12;99487.03;5052767;28;20025;-67
2023/01/19 05:02:54;;;;;;;30.08;15.82;;;;;;;3.66;90.83;99555.31;5051148;28;20033;-65
2023/01/19 05:05:20;;;;;;;31.35;15.88;;;;;;;3.61;91.33;99551.56;5052804;28;20020;-68
2023/01/19 05:07:45;;;;;;;27.00;15.75;;;;;;;3.68;90.21;99557.81;5054464;28;20021;-66
2023/01/19 05:10:11;;;;;;;31.38;16.75;;;;;;;3.58;90.38;99543.97;5049946;28;20476;-67
2023/01/19 05:12:37;;;;;;;31.85;16.35;;;;;;;3.66;90.49;99554.50;5050314;28;20028;-67
2023/01/19 05:15:03;;;;;;;23.98;16.05;;;;;;;3.35;90.53;99506.84;5050402;28;20029;-68
2023/01/19 05:17:29;;;;;;;33.50;16.00;;;;;;;3.48;91.55;99547.72;5051549;28;20060;-67
2023/01/19 05:19:55;;;;;;;29.10;16.38;;;;;;;3.58;90.79;99550.13;5050440;28;20448;-68
2023/01/19 05:22:20;;;;;;;30.25;15.55;;;;;;;3.69;90.62;99538.16;5051248;28;20041;-68
2023/01/19 05:24:46;;;;;;;31.10;16.40;;;;;;;3.71;89.66;99550.28;5052048;28;20032;-68
2023/01/19 05:27:11;;;;;;;33.05;16.92;;;;;;;3.48;91.16;99549.56;5051006;28;20033;-68
2023/01/19 05:29:37;;;;;;;33.88;16.45;;;;;;;3.52;91.55;99549.00;5052397;28;20031;-68
2023/01/19 05:32:02;;;;;;;29.58;15.85;;;;;;;3.48;90.93;99552.22;5052577;28;20033;-68
2023/01/19 05:34:28;;;;;;;29.02;15.27;;;;;;;3.32;92.17;99550.56;5051700;28;20044;-68
2023/01/19 05:36:53;;;;;;;28.42;16.10;;;;;;;3.36;90.97;99551.84;5052303;28;20053;-68
2023/01/19 05:39:19;;;;;;;27.75;15.85;;;;;;;3.46;91.29;99540.94;5051232;28;20028;-68
2023/01/19 05:41:44;;;;;;;33.55;16.48;;;;;;;3.42;91.39;99545.81;5050860;28;20031;-69
2023/01/19 05:44:10;;;;;;;27.33;15.32;;;;;;;3.41;90.53;99540.66;5051213;28;20064;-68
2023/01/19 05:46:36;;;;;;;32.83;14.10;;;;;;;3.23;91.41;99531.22;5033937;28;20559;-68
2023/01/19 05:49:03;;;;;;;26.67;14.18;;;;;;;3.37;90.89;99550.00;5051334;28;20163;-69
2023/01/19 05:51:33;;;;;;;28.40;14.18;;;;;;;3.39;90.82;99540.03;5050727;28;20047;-68
2023/01/19 05:54:00;;;;;;;26.58;13.32;;;;;;;3.49;90.72;99553.88;5054122;28;20037;-68
2023/01/19 05:56:25;;;;;;;24.95;14.52;;;;;;;3.43;90.74;99551.94;5055912;28;20044;-69
2023/01/19 05:58:51;;;;;;;33.45;14.95;;;;;;;3.45;90.35;99552.59;5055207;28;20105;-69
2023/01/19 06:01:16;;;;;;;22.35;13.25;;;;;;;3.49;89.93;99559.19;5055970;28;20064;-69
2023/01/19 06:03:42;;;;;;;22.83;13.82;;;;;;;3.49;90.12;99557.34;5054323;28;20025;-69
2023/01/19 06:06:07;;;;;;;26.00;13.55;;;;;;;3.50;90.65;99556.34;5055554;28;20116;-68
2023/01/19 06:08:33;;;;;;;23.55;13.77;;;;;;;3.53;90.01;99552.50;5052360;28;20052;-69
2023/01/19 06:10:58;;;;;;;25.65;13.93;;;;;;;3.38;90.33;99531.22;5054142;28;20725;-69
2023/01/19 06:13:23;;;;;;;26.35;13.55;;;;;;;3.48;90.73;99550.38;5054061;28;20090;-68
2023/01/19 06:15:58;;;;;;;26.13;13.10;;;;;;;3.49;90.45;99554.69;5054165;28;20037;-69
2023/01/19 06:18:23;;;;;;;25.08;12.25;;;;;;;3.50;90.00;99552.84;5054089;28;20056;-69
2023/01/19 06:20:49;;;;;;;20.20;12.27;;;;;;;3.47;90.11;99547.91;5052574;28;20500;-68
2023/01/19 06:23:14;;;;;;;22.90;12.50;;;;;;;3.46;90.34;99551.56;5055225;28;20025;-69
2023/01/19 06:25:40;;;;;;;27.40;12.80;;;;;;;3.49;90.33;99545.91;5054902;28;20362;-69
2023/01/19 06:28:05;;;;;;;25.15;13.02;;;;;;;3.51;90.67;99550.03;5052938;28;20041;-69
2023/01/19 06:30:30;;;;;;;28.80;14.18;;;;;;;3.54;90.27;99548.81;5055116;28;20036;-69
2023/01/19 06:32:56;;;;;;;29.25;13.60;;;;;;;3.49;90.45;99536.06;5054118;28;20029;-69
2023/01/19 06:35:21;;;;;;;26.27;12.88;;;;;;;3.52;90.06;99550.84;5053170;28;20111;-69
2023/01/19 06:37:46;;;;;;;26.05;14.32;;;;;;;3.44;90.08;99534.97;5053572;28;20029;-69
2023/01/19 06:40:12;;;;;;;24.35;13.30;;;;;;;3.52;90.32;99545.53;5053516;28;20108;-69
2023/01/19 06:42:37;;;;;;;30.73;13.30;;;;;;;3.60;90.06;99548.06;5053559;28;20052;-69
2023/01/19 06:45:03;;;;;;;22.30;12.73;;;;;;;3.44;90.07;99527.00;5037465;28;20025;-68
2023/01/19 06:47:29;;;;;;;22.42;12.20;;;;;;;3.52;90.21;99561.50;5036628;28;20029;-69
2023/01/19 06:49:55;;;;;;;25.10;12.80;;;;;;;3.57;89.70;99563.59;5054638;28;20033;-68
2023/01/19 06:52:20;;;;;;;23.80;13.02;;;;;;;3.51;90.29;99570.47;5053065;28;20048;-68
2023/01/19 06:54:46;;;;;;;21.83;12.18;;;;;;;3.53;89.95;99579.09;5054384;28;20463;-69
2023/01/19 06:57:12;;;;;;;24.35;11.73;;;;;;;3.50;90.19;99576.78;5054555;28;20028;-68
2023/01/19 06:59:38;;;;;;;23.77;12.15;;;;;;;3.61;90.67;99578.16;5054470;28;20120;-69
2023/01/19 07:02:04;;;;;;;24.58;12.43;;;;;;;3.62;90.30;99583.31;5054441;28;20501;-69
2023/01/19 07:04:29;;;;;;;26.63;12.82;;;;;;;3.48;90.10;99555.72;5052828;28;20056;-68
2023/01/19 07:06:55;;;;;;;24.52;11.90;;;;;;;3.51;90.58;99579.28;5054664;28;20111;-68
2023/01/19 07:09:20;;;;;;;24.15;11.93;;;;;;;3.48;90.75;99565.53;5053083;28;20079;-68
2023/01/19 07:11:47;;;;;;;24.98;11.15;;;;;;;3.52;90.64;99570.28;5052720;28;20037;-68
2023/01/19 07:14:13;;;;;;;24.23;11.13;;;;;;;3.46;91.60;99580.84;5053595;28;20024;-69
2023/01/19 07:16:38;;;;;;;25.90;11.52;;;;;;;3.54;91.33;99588.69;5053003;28;20083;-69
2023/01/19 07:19:04;;;;;;;15.05;9.35;;;;;;;3.40;91.71;99554.97;5052027;28;20056;-69
2023/01/19 07:21:29;;;;;;;21.58;11.25;;;;;;;3.60;91.86;99585.31;5055018;28;20480;-68
2023/01/19 07:23:55;;;;;;;18.58;10.90;;;;;;;3.69;91.16;99594.84;5054661;28;20460;-69
2023/01/19 07:26:24;;;;;;;21.65;10.75;;;;;;;3.47;92.13;99566.50;5054323;28;20029;-69
2023/01/19 07:28:51;;;;;;;17.15;9.25;;;;;;;3.51;91.42;99568.66;5054115;28;20507;-68
2023/01/19 07:31:17;;;;;;;18.33;10.02;;;;;;;3.88;90.67;99604.13;5053985;28;20475;-68
2023/01/19 07:33:43;;;;;;;19.52;10.07;;;;;;;3.81;90.42;99589.06;5054079;28;20040;-68
2023/01/19 07:36:09;;;;;;;18.17;10.23;;;;;;;3.92;91.09;99604.56;5054293;28;20434;-69
2023/01/19 07:38:34;;;;;;;19.98;9.00;;;;;;;3.96;90.88;99606.66;5054616;28;20025;-69
2023/01/19 07:41:05;;;;;;;17.73;9.40;;;;;;;3.86;90.44;99581.34;5052771;28;20046;-69
2023/01/19 07:43:31;;;;;;;20.33;8.98;;;;;;;3.98;90.43;99582.53;5054116;28;20009;-69
2023/01/19 07:45:58;;;;;;;18.58;9.45;;;;;;;4.11;89.99;99604.00;5053537;28;20533;-69
2023/01/19 07:48:24;;;;;;;16.60;9.65;;;;;;;4.03;90.67;99597.94;5053978;28;20021;-69
2023/01/19 07:50:50;;;;;;;14.73;9.20;;;;;;;4.04;90.63;99600.44;5053249;28;20035;-69
2023/01/19 07:53:15;;;;;;;15.45;8.90;;;;;;;3.81;91.50;99607.69;5053042;28;20065;-68
2023/01/19 07:55:41;;;;;;;15.70;8.65;;;;;;;3.67;92.17;99612.00;5054528;28;20438;-69
2023/01/19 07:58:07;;;;;;;18.33;9.30;;;;;;;3.81;92.30;99608.53;5054078;28;20040;-69
2023/01/19 08:00:34;;;;;;;18.33;9.40;;;;;;;3.96;91.28;99608.50;5052622;28;20393;-69
2023/01/19 08:03:00;;;;;;;16.02;10.18;;;;;;;4.00;91.48;99612.44;5053901;28;20487;-69
2023/01/19 08:05:27;;;;;;;20.90;10.48;;;;;;;4.05;90.46;99587.94;5053812;28;20098;-68
2023/01/19 08:07:56;;;;;;;23.40;11.23;;;;;;;4.08;90.97;99599.03;5053502;28;20020;-68
2023/01/19 08:10:24;;;;;;;19.40;10.77;;;;;;;4.14;91.04;99614.28;5053698;28;20013;-69
2023/01/19 08:12:50;;;;;;;21.95;10.82;;;;;;;4.23;90.99;99601.66;5052172;28;20029;-68
2023/01/19 08:15:15;;;;;;;19.48;9.77;;;;;;;4.29;90.49;99603.56;5052739;28;20040;-68
2023/01/19 08:17:41;;;;;;;19.23;9.20;;;;;;;4.30;90.91;99617.72;5053608;28;20049;-69
2023/01/19 08:20:08;;;;;;;19.13;8.75;;;;;;;4.16;90.91;99617.56;5053373;28;20036;-69
2023/01/19 08:22:33;;;;;;;15.20;8.85;;;;;;;4.35;90.38;99615.31;5052211;28;20564;-68
2023/01/19 08:24:59;;;;;;;14.15;8.20;;;;;;;4.27;90.72;99621.56;5053496;28;20037;-68
2023/01/19 08:27:24;;;;;;;16.83;8.48;;;;;;;4.24;90.69;99620.13;5052305;28;20033;-69
2023/01/19 08:29:50;;;;;;;13.77;8.32;;;;;;;3.89;91.79;99616.41;5056067;28;20396;-69
2023/01/19 08:32:15;;;;;;;17.42;8.90;;;;;;;4.16;91.71;99622.06;5052226;28;20025;-68
2023/01/19 08:34:41;;;;;;;17.73;8.35;;;;;;;4.35;90.98;99625.97;5034788;28;20508;-68
2023/01/19 08:37:06;;;;;;;14.93;8.20;;;;;;;4.33;90.78;99631.47;5053307;28;20028;-69
2023/01/19 08:39:32;;;;;;;21.23;10.20;;;;;;;4.47;90.10;99635.13;5052835;28;20033;-69
2023/01/19 08:41:59;;;;;;;15.93;8.60;;;;;;;4.21;91.05;99633.81;5051060;28;20040;-69
2023/01/19 08:44:25;;;;;;;19.55;9.23;;;;;;;4.33;90.79;99625.31;5051239;28;20479;-69
2023/01/19 08:46:51;;;;;;;19.77;8.63;;;;;;;4.44;90.65;99624.84;5052887;28;20061;-69
2023/01/19 08:49:16;;;;;;;20.50;8.90;;;;;;;4.42;90.84;99640.19;5053303;28;20135;-68
2023/01/19 08:51:45;;;;;;;17.02;9.10;;;;;;;4.48;89.85;99626.94;5052718;28;20025;-68
2023/01/19 08:54:10;;;;;;;15.10;8.82;;;;;;;4.41;90.00;99643.88;5051671;28;20037;-68
2023/01/19 08:56:37;;;;;;;13.80;8.73;;;;;;;4.48;90.54;99647.44;5051741;28;20124;-68
2023/01/19 08:59:02;;;;;;;19.17;8.05;;;;;;;4.45;90.35;99642.47;5051764;28;20037;-68
2023/01/19 09:01:28;;;;;;;14.43;7.53;;;;;;;4.60;89.85;99643.28;5054671;28;20056;-68
2023/01/19 09:03:53;;;;;;;13.10;8.00;;;;;;;4.66;89.21;99647.81;5052462;28;20075;-68
2023/01/19 09:06:19;;;;;;;19.45;8.25;;;;;;;4.60;89.40;99645.94;5052331;28;20052;-68
2023/01/19 09:08:46;;;;;;;14.85;7.68;;;;;;;4.70;89.38;99650.94;5051586;28;20534;-68
2023/01/19 09:11:13;;;;;;;16.50;7.55;;;;;;;4.63;88.79;99648.19;5052835;28;20029;-68
2023/01/19 09:13:40;;;;;;;14.20;7.65;;;;;;;4.68;88.78;99648.47;5052448;28;20036;-68
2023/01/19 09:16:06;;;;;;;13.75;7.43;;;;;;;4.52;88.93;99622.06;5052692;28;20048;-69
2023/01/19 09:18:33;;;;;;;13.43;7.47;;;;;;;4.54;89.74;99654.69;5052453;28;20037;-69
2023/01/19 09:21:00;;;;;;;15.15;7.60;;;;;;;4.48;89.54;99636.78;5051930;28;20518;-68
2023/01/19 09:23:25;;;;;;;13.77;7.80;;;;;;;4.76;88.78;99665.34;5050341;28;20033;-68
2023/01/19 09:25:56;;;;;;;16.30;7.78;;;;;;;4.69;89.44;99652.78;5051429;28;20369;-68
2023/01/19 09:28:21;;;;;;;13.57;7.78;;;;;;;4.74;89.12;99668.22;5052820;28;20398;-68
2023/01/19 09:30:47;;;;;;;15.30;7.50;;;;;;;4.61;89.14;99663.56;5054185;28;20033;-68
2023/01/19 09:33:14;;;;;;;12.82;7.80;;;;;;;4.59;89.04;99654.09;5037870;28;20086;-68
2023/01/19 09:35:40;;;;;;;18.88;8.90;;;;;;;4.67;89.71;99668.13;5055609;28;20033;-68
2023/01/19 09:38:07;;;;;;;19.20;8.88;;;;;;;4.68;89.22;99671.63;5054185;28;20504;-68
2023/01/19 09:40:35;;;;;;;12.82;7.68;;;;;;;4.55;89.93;99672.31;5055467;28;20582;-69
2023/01/19 09:43:30;;;;;;;13.20;8.45;;;;;;;4.04;92.39;99676.78;5054289;28;20472;-68
2023/01/19 09:46:25;;;;;;;20.58;9.35;;;;;;;4.17;92.61;99683.13;5054070;28;20040;-68
2023/01/19 09:48:56;;;;;;;14.67;8.73;;;;;;;4.32;92.11;99683.09;5046085;28;20060;-68
2023/01/19 09:51:32;;;;;;;14.70;9.23;;;;;;;4.17;91.92;99688.44;5055228;28;20731;-68
2023/01/19 09:54:16;;;;;;;14.20;9.45;;;;;;;4.09;93.82;99691.19;5054291;28;20071;-68
2023/01/19 09:56:44;;;;;;;21.00;9.73;;;;;;;4.02;92.48;99642.38;5055278;28;20163;-68
2023/01/19 09:59:19;;;;;;;16.17;9.32;;;;;;;4.37;91.88;99691.38;5053646;28;20480;-68
2023/01/19 10:01:56;;;;;;;;;;;;;;;3.88;94.72;99689.28;5054233;28;20033;-68
2023/01/19 10:04:39;;;;;;;15.35;8.55;;;;;;;4.04;92.81;99661.66;5056394;28;19912;-68
2023/01/19 10:07:19;;;;;;;16.35;10.00;;;;;;;4.00;94.58;99692.28;5055555;28;20040;-67
2023/01/19 10:10:00;;;;;;;17.83;9.40;;;;;;;3.86;94.32;99680.63;5055018;28;20024;-68
2023/01/19 10:12:37;;;;;;;15.38;9.60;;;;;;;4.22;93.45;99698.53;5053559;28;20032;-67
2023/01/19 10:15:11;;;;;;;24.42;9.82;;;;;;;4.11;93.39;99688.38;5054951;28;20036;-68
2023/01/19 10:17:59;;;;;;;18.05;10.65;;;;;;;4.03;93.77;99669.81;5055400;28;20444;-68
2023/01/19 10:20:32;;;;;;;13.68;10.07;;;;;;;4.00;94.21;99686.97;5054585;28;20491;-68
2023/01/19 10:22:58;;;;;;;16.08;10.88;;;;;;;4.15;93.37;99690.47;5055032;28;20017;-68
2023/01/19 10:25:25;;;;;;;19.13;11.10;;;;;;;4.20;93.01;99692.56;5054874;28;20403;-68
2023/01/19 10:27:50;;;;;;;19.75;11.60;;;;;;;4.12;93.43;99690.81;5060509;28;20035;-67
2023/01/19 10:30:24;;;;;;;17.95;11.05;;;;;;;4.28;92.64;99696.97;5059790;28;20025;-69
2023/01/19 10:32:50;;;;;;;19.70;11.05;;;;;;;4.03;94.03;99699.91;5054724;28;20033;-68
2023/01/19 10:35:23;;;;;;;17.50;10.43;;;;;;;4.19;93.08;99699.72;5056092;28;20036;-68
2023/01/19 10:37:51;;;;;;;17.80;11.30;;;;;;;4.30;92.43;99702.94;5054569;28;20033;-68
2023/01/19 10:40:26;;;;;;;16.30;10.90;;;;;;;4.17;92.45;99671.63;5054419;28;20033;-68
2023/01/19 10:42:51;;;;;;;18.63;11.35;;;;;;;4.34;92.39;99698.88;5054545;28;20017;-68
2023/01/19 10:45:18;;;;;;;17.40;10.63;;;;;;;4.21;93.14;99703.03;5053197;28;20039;-69
2023/01/19 10:47:45;;;;;;;18.20;10.95;;;;;;;4.33;92.01;99707.88;5054309;28;20032;-67
2023/01/19 10:50:33;;;;;;;17.90;11.23;;;;;;;4.24;92.51;99710.66;5053027;28;20429;-68
2023/01/19 10:53:02;;;;;;;18.55;11.35;;;;;;;4.22;93.30;99714.50;5053015;28;20047;-68
2023/01/19 10:55:30;;;;;;;20.75;11.75;;;;;;;4.05;93.99;99708.56;5054240;28;20025;-68
2023/01/19 10:57:57;;;;;;;20.25;12.20;;;;;;;3.91;94.83;99706.72;5053969;28;20502;-67
2023/01/19 11:00:36;;;;;;;19.92;11.77;;;;;;;4.10;94.00;99707.97;5052630;28;20033;-68
2023/01/19 11:03:23;;;;;;;21.13;12.18;;;;;;;4.36;93.04;99705.66;5053999;28;20052;-68
2023/01/19 11:05:49;;;;;;;23.50;12.57;;;;;;;4.35;92.54;99709.34;5051879;28;20044;-68
2023/01/19 11:08:30;;;;;;;18.10;12.38;;;;;;;4.44;92.58;99712.75;5054034;28;20036;-68
2023/01/19 11:11:02;;;;;;;21.05;12.35;;;;;;;4.02;94.13;99706.25;5053757;28;20025;-68
2023/01/19 11:13:28;;;;;;;21.13;13.70;;;;;;;3.90;93.97;99673.94;5053685;28;20193;-68
2023/01/19 11:15:58;;;;;;;20.20;13.23;;;;;;;4.24;93.09;99707.19;5053362;28;20043;-68
2023/01/19 11:18:32;;;;;;;23.75;14.13;;;;;;;4.33;92.67;99703.38;5053593;28;20529;-68
2023/01/19 11:21:01;;;;;;;19.60;14.10;;;;;;;4.21;94.09;99707.53;5052253;28;20182;-68
2023/01/19 11:23:42;;;;;;;20.33;13.30;;;;;;;4.30;93.71;99706.41;5053112;28;20044;-67
2023/01/19 11:26:15;;;;;;;22.73;13.00;;;;;;;4.04;94.24;99706.91;5053806;28;20124;-69
2023/01/19 11:28:47;;;;;;;23.63;13.27;;;;;;;4.02;95.65;99711.56;5053654;28;20104;-68
2023/01/19 11:31:13;;;;;;;22.10;13.60;;;;;;;4.14;94.71;99707.44;5052243;28;20025;-68
2023/01/19 11:33:53;;;;;;;21.02;14.82;;;;;;;4.10;95.90;99705.31;5052664;28;20431;-68
2023/01/19 11:36:31;;;;;;;22.80;13.63;;;;;;;4.23;94.52;99708.16;5053393;28;20049;-68
2023/01/19 11:38:58;;;;;;;24.30;14.90;;;;;;;4.12;95.75;99703.31;5053721;28;20045;-68
2023/01/19 11:41:30;;;;;;;21.83;12.95;;;;;;;3.96;96.31;99704.31;5051219;28;20029;-68
2023/01/19 11:44:04;;;;;;;24.70;14.13;;;;;;;4.00;96.12;99701.09;5052135;28;20028;-68
2023/01/19 11:46:33;;;;;;;23.75;14.57;;;;;;;4.30;94.80;99708.25;5052565;28;20108;-67